sensor_id;sensor_type;location;lat;lon;timestamp;P1;durP1;ratioP1;P2;durP2;ratioP2
46415;SDS011;32620;51.704;7.822;2023-03-23T00:01:27;9.27;;;5.32;;
46415;SDS011;32620;51.704;7.822;2023-03-23T00:03:56;9.80;;;5.10;;
46415;SDS011;32620;51.704;7.822;2023-03-23T00:06:23;8.75;;;5.10;;
46415;SDS011;32620;51.704;7.822;2023-03-23T00:08:51;10.63;;;5.65;;
46415;SDS011;32620;51.704;7.822;2023-03-23T00:11:24;13.98;;;4.72;;
46415;SDS011;32620;51.704;7.822;2023-03-23T00:13:53;12.93;;;5.15;;
46415;SDS011;32620;51.704;7.822;2023-03-23T00:16:22;8.95;;;4.85;;
46415;SDS011;32620;51.704;7.822;2023-03-23T00:18:59;8.15;;;5.13;;
46415;SDS011;32620;51.704;7.822;2023-03-23T00:21:28;7.63;;;4.80;;
46415;SDS011;32620;51.704;7.822;2023-03-23T00:24:01;9.68;;;4.72;;
46415;SDS011;32620;51.704;7.822;2023-03-23T00:26:31;13.07;;;5.25;;
46415;SDS011;32620;51.704;7.822;2023-03-23T00:28:58;8.27;;;4.68;;
46415;SDS011;32620;51.704;7.822;2023-03-23T00:31:25;11.48;;;4.32;;
46415;SDS011;32620;51.704;7.822;2023-03-23T00:33:56;7.97;;;4.32;;
46415;SDS011;32620;51.704;7.822;2023-03-23T00:36:23;7.40;;;4.15;;
46415;SDS011;32620;51.704;7.822;2023-03-23T00:38:49;6.80;;;4.60;;
46415;SDS011;32620;51.704;7.822;2023-03-23T00:41:15;7.18;;;4.28;;
46415;SDS011;32620;51.704;7.822;2023-03-23T00:43:40;8.85;;;4.85;;
46415;SDS011;32620;51.704;7.822;2023-03-23T00:46:06;9.70;;;4.00;;
46415;SDS011;32620;51.704;7.822;2023-03-23T00:48:34;8.30;;;3.97;;
46415;SDS011;32620;51.704;7.822;2023-03-23T00:51:01;7.57;;;3.97;;
46415;SDS011;32620;51.704;7.822;2023-03-23T00:53:31;10.93;;;5.07;;
46415;SDS011;32620;51.704;7.822;2023-03-23T00:55:57;9.20;;;4.38;;
46415;SDS011;32620;51.704;7.822;2023-03-23T00:58:23;10.07;;;4.82;;
46415;SDS011;32620;51.704;7.822;2023-03-23T01:00:49;9.90;;;4.20;;
46415;SDS011;32620;51.704;7.822;2023-03-23T01:03:15;6.45;;;4.45;;
46415;SDS011;32620;51.704;7.822;2023-03-23T01:05:43;8.68;;;4.13;;
46415;SDS011;32620;51.704;7.822;2023-03-23T01:08:11;9.20;;;4.32;;
46415;SDS011;32620;51.704;7.822;2023-03-23T01:10:38;8.75;;;4.28;;
46415;SDS011;32620;51.704;7.822;2023-03-23T01:13:04;9.23;;;4.05;;
46415;SDS011;32620;51.704;7.822;2023-03-23T01:15:30;6.15;;;3.80;;
46415;SDS011;32620;51.704;7.822;2023-03-23T01:17:56;9.85;;;4.05;;
46415;SDS011;32620;51.704;7.822;2023-03-23T01:20:22;7.93;;;4.45;;
46415;SDS011;32620;51.704;7.822;2023-03-23T01:22:48;8.45;;;3.63;;
46415;SDS011;32620;51.704;7.822;2023-03-23T01:25:14;6.20;;;3.70;;
46415;SDS011;32620;51.704;7.822;2023-03-23T01:27:40;6.60;;;3.97;;
46415;SDS011;32620;51.704;7.822;2023-03-23T01:30:06;7.53;;;3.70;;
46415;SDS011;32620;51.704;7.822;2023-03-23T01:32:33;8.20;;;4.15;;
46415;SDS011;32620;51.704;7.822;2023-03-23T01:34:59;6.85;;;4.00;;
46415;SDS011;32620;51.704;7.822;2023-03-23T01:37:25;8.95;;;4.10;;
46415;SDS011;32620;51.704;7.822;2023-03-23T01:39:55;10.70;;;4.50;;
46415;SDS011;32620;51.704;7.822;2023-03-23T01:42:22;6.03;;;3.95;;
46415;SDS011;32620;51.704;7.822;2023-03-23T01:47:26;6.15;;;4.25;;
46415;SDS011;32620;51.704;7.822;2023-03-23T01:49:52;8.55;;;4.00;;
46415;SDS011;32620;51.704;7.822;2023-03-23T01:52:22;9.48;;;4.05;;
46415;SDS011;32620;51.704;7.822;2023-03-23T01:54:51;7.80;;;3.92;;
46415;SDS011;32620;51.704;7.822;2023-03-23T01:57:20;11.38;;;4.03;;
46415;SDS011;32620;51.704;7.822;2023-03-23T01:59:49;12.07;;;4.53;;
46415;SDS011;32620;51.704;7.822;2023-03-23T02:02:17;9.45;;;3.92;;
46415;SDS011;32620;51.704;7.822;2023-03-23T02:04:45;8.00;;;4.22;;
46415;SDS011;32620;51.704;7.822;2023-03-23T02:07:11;7.70;;;4.22;;
46415;SDS011;32620;51.704;7.822;2023-03-23T02:09:39;6.40;;;4.00;;
46415;SDS011;32620;51.704;7.822;2023-03-23T02:12:04;5.82;;;3.53;;
46415;SDS011;32620;51.704;7.822;2023-03-23T02:14:30;8.68;;;3.85;;
46415;SDS011;32620;51.704;7.822;2023-03-23T02:17:16;6.88;;;3.88;;
46415;SDS011;32620;51.704;7.822;2023-03-23T02:19:54;5.97;;;3.63;;
46415;SDS011;32620;51.704;7.822;2023-03-23T02:25:55;6.45;;;3.53;;
46415;SDS011;32620;51.704;7.822;2023-03-23T02:28:44;7.88;;;3.90;;
46415;SDS011;32620;51.704;7.822;2023-03-23T02:31:37;5.53;;;2.92;;
46415;SDS011;32620;51.704;7.822;2023-03-23T02:34:32;7.70;;;4.05;;
46415;SDS011;32620;51.704;7.822;2023-03-23T02:37:12;4.40;;;2.90;;
46415;SDS011;32620;51.704;7.822;2023-03-23T02:39:47;5.97;;;3.13;;
46415;SDS011;32620;51.704;7.822;2023-03-23T02:42:20;8.63;;;3.03;;
46415;SDS011;32620;51.704;7.822;2023-03-23T02:44:49;6.28;;;2.72;;
46415;SDS011;32620;51.704;7.822;2023-03-23T02:47:19;3.42;;;2.58;;
46415;SDS011;32620;51.704;7.822;2023-03-23T02:49:48;5.18;;;2.47;;
46415;SDS011;32620;51.704;7.822;2023-03-23T02:52:19;3.67;;;2.50;;
46415;SDS011;32620;51.704;7.822;2023-03-23T02:54:49;5.63;;;2.40;;
46415;SDS011;32620;51.704;7.822;2023-03-23T02:57:16;2.95;;;2.40;;
46415;SDS011;32620;51.704;7.822;2023-03-23T02:59:42;6.32;;;3.05;;
46415;SDS011;32620;51.704;7.822;2023-03-23T03:02:12;4.78;;;2.65;;
46415;SDS011;32620;51.704;7.822;2023-03-23T03:04:44;3.40;;;2.67;;
46415;SDS011;32620;51.704;7.822;2023-03-23T03:07:35;8.20;;;3.38;;
46415;SDS011;32620;51.704;7.822;2023-03-23T03:10:18;7.10;;;3.47;;
46415;SDS011;32620;51.704;7.822;2023-03-23T03:12:52;8.52;;;3.63;;
46415;SDS011;32620;51.704;7.822;2023-03-23T03:15:36;6.00;;;3.70;;
46415;SDS011;32620;51.704;7.822;2023-03-23T03:18:10;6.97;;;3.85;;
46415;SDS011;32620;51.704;7.822;2023-03-23T03:20:43;8.38;;;3.78;;
46415;SDS011;32620;51.704;7.822;2023-03-23T03:23:13;4.25;;;3.30;;
46415;SDS011;32620;51.704;7.822;2023-03-23T03:25:40;3.47;;;3.00;;
46415;SDS011;32620;51.704;7.822;2023-03-23T03:28:12;4.70;;;3.40;;
46415;SDS011;32620;51.704;7.822;2023-03-23T03:30:40;4.88;;;3.13;;
46415;SDS011;32620;51.704;7.822;2023-03-23T03:33:09;4.05;;;2.97;;
46415;SDS011;32620;51.704;7.822;2023-03-23T03:35:36;6.28;;;3.45;;
46415;SDS011;32620;51.704;7.822;2023-03-23T03:38:07;7.50;;;3.47;;
46415;SDS011;32620;51.704;7.822;2023-03-23T03:40:34;4.38;;;3.65;;
46415;SDS011;32620;51.704;7.822;2023-03-23T03:42:59;6.95;;;3.67;;
46415;SDS011;32620;51.704;7.822;2023-03-23T03:45:26;4.78;;;3.05;;
46415;SDS011;32620;51.704;7.822;2023-03-23T03:47:51;5.35;;;3.58;;
46415;SDS011;32620;51.704;7.822;2023-03-23T03:50:17;6.45;;;4.32;;
46415;SDS011;32620;51.704;7.822;2023-03-23T03:52:43;7.57;;;3.53;;
46415;SDS011;32620;51.704;7.822;2023-03-23T03:55:09;4.07;;;3.30;;
46415;SDS011;32620;51.704;7.822;2023-03-23T03:57:35;4.65;;;3.40;;
46415;SDS011;32620;51.704;7.822;2023-03-23T04:00:01;4.45;;;3.28;;
46415;SDS011;32620;51.704;7.822;2023-03-23T04:02:38;4.18;;;3.40;;
46415;SDS011;32620;51.704;7.822;2023-03-23T04:05:04;5.35;;;3.50;;
46415;SDS011;32620;51.704;7.822;2023-03-23T04:07:29;3.95;;;3.30;;
46415;SDS011;32620;51.704;7.822;2023-03-23T04:09:55;5.60;;;3.28;;
46415;SDS011;32620;51.704;7.822;2023-03-23T04:12:20;5.40;;;3.55;;
46415;SDS011;32620;51.704;7.822;2023-03-23T04:14:46;5.13;;;3.70;;
46415;SDS011;32620;51.704;7.822;2023-03-23T04:17:11;6.68;;;3.33;;
46415;SDS011;32620;51.704;7.822;2023-03-23T04:19:39;7.85;;;4.07;;
46415;SDS011;32620;51.704;7.822;2023-03-23T04:22:05;5.30;;;3.40;;
46415;SDS011;32620;51.704;7.822;2023-03-23T04:24:31;4.70;;;3.67;;
46415;SDS011;32620;51.704;7.822;2023-03-23T04:26:58;5.45;;;3.20;;
46415;SDS011;32620;51.704;7.822;2023-03-23T04:29:24;5.63;;;3.33;;
46415;SDS011;32620;51.704;7.822;2023-03-23T04:31:51;4.40;;;3.30;;
46415;SDS011;32620;51.704;7.822;2023-03-23T04:34:17;7.05;;;2.90;;
46415;SDS011;32620;51.704;7.822;2023-03-23T04:36:43;3.38;;;2.88;;
46415;SDS011;32620;51.704;7.822;2023-03-23T04:39:09;4.80;;;2.65;;
46415;SDS011;32620;51.704;7.822;2023-03-23T04:41:36;3.42;;;2.65;;
46415;SDS011;32620;51.704;7.822;2023-03-23T04:44:02;3.20;;;2.55;;
46415;SDS011;32620;51.704;7.822;2023-03-23T04:46:29;3.63;;;2.40;;
46415;SDS011;32620;51.704;7.822;2023-03-23T04:48:55;4.50;;;2.50;;
46415;SDS011;32620;51.704;7.822;2023-03-23T04:51:23;3.78;;;2.55;;
46415;SDS011;32620;51.704;7.822;2023-03-23T04:53:51;3.45;;;2.28;;
46415;SDS011;32620;51.704;7.822;2023-03-23T04:56:17;4.15;;;2.67;;
46415;SDS011;32620;51.704;7.822;2023-03-23T04:58:43;4.50;;;2.58;;
46415;SDS011;32620;51.704;7.822;2023-03-23T05:01:10;3.47;;;2.63;;
46415;SDS011;32620;51.704;7.822;2023-03-23T05:03:38;4.90;;;2.60;;
46415;SDS011;32620;51.704;7.822;2023-03-23T05:06:05;4.35;;;2.47;;
46415;SDS011;32620;51.704;7.822;2023-03-23T05:08:31;4.15;;;2.60;;
46415;SDS011;32620;51.704;7.822;2023-03-23T05:10:57;4.68;;;2.45;;
46415;SDS011;32620;51.704;7.822;2023-03-23T05:13:24;4.82;;;2.47;;
46415;SDS011;32620;51.704;7.822;2023-03-23T05:15:52;3.90;;;2.55;;
46415;SDS011;32620;51.704;7.822;2023-03-23T05:18:17;3.42;;;2.53;;
46415;SDS011;32620;51.704;7.822;2023-03-23T05:20:45;4.00;;;2.60;;
46415;SDS011;32620;51.704;7.822;2023-03-23T05:23:12;3.78;;;2.58;;
46415;SDS011;32620;51.704;7.822;2023-03-23T05:25:38;5.35;;;2.42;;
46415;SDS011;32620;51.704;7.822;2023-03-23T05:28:06;3.35;;;2.78;;
46415;SDS011;32620;51.704;7.822;2023-03-23T05:30:32;6.43;;;2.30;;
46415;SDS011;32620;51.704;7.822;2023-03-23T05:32:58;3.03;;;2.35;;
46415;SDS011;32620;51.704;7.822;2023-03-23T05:35:24;4.45;;;2.45;;
46415;SDS011;32620;51.704;7.822;2023-03-23T05:37:50;3.15;;;2.60;;
46415;SDS011;32620;51.704;7.822;2023-03-23T05:40:18;3.38;;;2.70;;
46415;SDS011;32620;51.704;7.822;2023-03-23T05:42:45;3.13;;;2.13;;
46415;SDS011;32620;51.704;7.822;2023-03-23T05:45:12;3.45;;;2.58;;
46415;SDS011;32620;51.704;7.822;2023-03-23T05:47:38;3.80;;;2.50;;
46415;SDS011;32620;51.704;7.822;2023-03-23T05:50:05;3.55;;;2.60;;
46415;SDS011;32620;51.704;7.822;2023-03-23T05:52:33;3.40;;;2.38;;
46415;SDS011;32620;51.704;7.822;2023-03-23T05:55:00;4.22;;;2.40;;
46415;SDS011;32620;51.704;7.822;2023-03-23T05:57:26;4.55;;;2.72;;
46415;SDS011;32620;51.704;7.822;2023-03-23T05:59:52;7.07;;;2.67;;
46415;SDS011;32620;51.704;7.822;2023-03-23T06:02:18;9.30;;;2.83;;
46415;SDS011;32620;51.704;7.822;2023-03-23T06:04:43;5.47;;;2.90;;
46415;SDS011;32620;51.704;7.822;2023-03-23T06:07:10;4.82;;;2.97;;
46415;SDS011;32620;51.704;7.822;2023-03-23T06:09:38;4.90;;;2.90;;
46415;SDS011;32620;51.704;7.822;2023-03-23T06:12:05;4.72;;;2.88;;
46415;SDS011;32620;51.704;7.822;2023-03-23T06:14:31;4.18;;;2.30;;
46415;SDS011;32620;51.704;7.822;2023-03-23T06:16:57;8.18;;;2.78;;
46415;SDS011;32620;51.704;7.822;2023-03-23T06:19:22;3.88;;;2.55;;
46415;SDS011;32620;51.704;7.822;2023-03-23T06:21:48;3.70;;;2.50;;
46415;SDS011;32620;51.704;7.822;2023-03-23T06:24:13;4.03;;;2.58;;
46415;SDS011;32620;51.704;7.822;2023-03-23T06:26:39;2.72;;;2.50;;
46415;SDS011;32620;51.704;7.822;2023-03-23T06:29:06;4.13;;;2.35;;
46415;SDS011;32620;51.704;7.822;2023-03-23T06:31:37;3.75;;;2.78;;
46415;SDS011;32620;51.704;7.822;2023-03-23T06:34:05;3.72;;;2.50;;
46415;SDS011;32620;51.704;7.822;2023-03-23T06:36:31;4.85;;;2.80;;
46415;SDS011;32620;51.704;7.822;2023-03-23T06:38:56;4.15;;;2.95;;
46415;SDS011;32620;51.704;7.822;2023-03-23T06:41:22;4.35;;;3.15;;
46415;SDS011;32620;51.704;7.822;2023-03-23T06:43:47;4.88;;;3.13;;
46415;SDS011;32620;51.704;7.822;2023-03-23T06:46:13;4.60;;;2.60;;
46415;SDS011;32620;51.704;7.822;2023-03-23T06:48:39;7.00;;;3.30;;
46415;SDS011;32620;51.704;7.822;2023-03-23T06:51:04;5.63;;;3.47;;
46415;SDS011;32620;51.704;7.822;2023-03-23T06:53:30;4.63;;;3.03;;
46415;SDS011;32620;51.704;7.822;2023-03-23T06:55:56;5.70;;;3.45;;
46415;SDS011;32620;51.704;7.822;2023-03-23T06:58:22;6.78;;;3.40;;
46415;SDS011;32620;51.704;7.822;2023-03-23T07:00:48;6.63;;;3.38;;
46415;SDS011;32620;51.704;7.822;2023-03-23T07:03:19;8.27;;;3.80;;
46415;SDS011;32620;51.704;7.822;2023-03-23T07:05:46;4.63;;;3.28;;
46415;SDS011;32620;51.704;7.822;2023-03-23T07:08:12;4.97;;;3.28;;
46415;SDS011;32620;51.704;7.822;2023-03-23T07:10:38;8.38;;;3.97;;
46415;SDS011;32620;51.704;7.822;2023-03-23T07:13:03;6.15;;;3.65;;
46415;SDS011;32620;51.704;7.822;2023-03-23T07:15:29;7.00;;;4.20;;
46415;SDS011;32620;51.704;7.822;2023-03-23T07:17:55;7.55;;;3.53;;
46415;SDS011;32620;51.704;7.822;2023-03-23T07:20:21;8.32;;;3.63;;
46415;SDS011;32620;51.704;7.822;2023-03-23T07:22:47;5.05;;;3.20;;
46415;SDS011;32620;51.704;7.822;2023-03-23T07:25:13;7.38;;;3.70;;
46415;SDS011;32620;51.704;7.822;2023-03-23T07:27:38;6.53;;;3.47;;
46415;SDS011;32620;51.704;7.822;2023-03-23T07:30:04;6.63;;;3.05;;
46415;SDS011;32620;51.704;7.822;2023-03-23T07:32:30;7.65;;;3.20;;
46415;SDS011;32620;51.704;7.822;2023-03-23T07:34:56;4.18;;;3.03;;
46415;SDS011;32620;51.704;7.822;2023-03-23T07:37:21;5.50;;;3.00;;
46415;SDS011;32620;51.704;7.822;2023-03-23T07:39:48;6.32;;;3.17;;
46415;SDS011;32620;51.704;7.822;2023-03-23T07:42:13;5.72;;;3.00;;
46415;SDS011;32620;51.704;7.822;2023-03-23T07:44:39;6.97;;;3.08;;
46415;SDS011;32620;51.704;7.822;2023-03-23T07:47:04;5.18;;;2.72;;
46415;SDS011;32620;51.704;7.822;2023-03-23T07:49:30;9.05;;;3.17;;
46415;SDS011;32620;51.704;7.822;2023-03-23T07:51:56;6.75;;;2.95;;
46415;SDS011;32620;51.704;7.822;2023-03-23T07:54:22;9.05;;;4.60;;
46415;SDS011;32620;51.704;7.822;2023-03-23T07:56:48;3.72;;;2.40;;
46415;SDS011;32620;51.704;7.822;2023-03-23T07:59:14;7.55;;;2.63;;
46415;SDS011;32620;51.704;7.822;2023-03-23T08:01:40;5.47;;;2.50;;
46415;SDS011;32620;51.704;7.822;2023-03-23T08:04:05;7.53;;;2.63;;
46415;SDS011;32620;51.704;7.822;2023-03-23T08:06:32;6.55;;;2.85;;
46415;SDS011;32620;51.704;7.822;2023-03-23T08:08:59;7.30;;;2.78;;
46415;SDS011;32620;51.704;7.822;2023-03-23T08:11:25;6.45;;;2.63;;
46415;SDS011;32620;51.704;7.822;2023-03-23T08:13:51;9.13;;;2.72;;
46415;SDS011;32620;51.704;7.822;2023-03-23T08:16:18;6.50;;;2.97;;
46415;SDS011;32620;51.704;7.822;2023-03-23T08:18:44;6.18;;;2.38;;
46415;SDS011;32620;51.704;7.822;2023-03-23T08:21:11;8.02;;;2.75;;
46415;SDS011;32620;51.704;7.822;2023-03-23T08:23:38;4.78;;;2.47;;
46415;SDS011;32620;51.704;7.822;2023-03-23T08:26:04;7.82;;;2.75;;
46415;SDS011;32620;51.704;7.822;2023-03-23T08:28:33;8.02;;;2.88;;
46415;SDS011;32620;51.704;7.822;2023-03-23T08:31:00;5.28;;;2.08;;
46415;SDS011;32620;51.704;7.822;2023-03-23T08:33:31;4.82;;;2.33;;
46415;SDS011;32620;51.704;7.822;2023-03-23T08:35:58;6.07;;;2.50;;
46415;SDS011;32620;51.704;7.822;2023-03-23T08:38:24;8.60;;;2.67;;
46415;SDS011;32620;51.704;7.822;2023-03-23T08:40:50;8.30;;;2.28;;
46415;SDS011;32620;51.704;7.822;2023-03-23T08:43:17;3.88;;;2.17;;
46415;SDS011;32620;51.704;7.822;2023-03-23T08:45:43;5.68;;;2.30;;
46415;SDS011;32620;51.704;7.822;2023-03-23T08:48:08;6.50;;;2.30;;
46415;SDS011;32620;51.704;7.822;2023-03-23T08:50:35;4.80;;;2.38;;
46415;SDS011;32620;51.704;7.822;2023-03-23T08:53:01;6.55;;;2.45;;
46415;SDS011;32620;51.704;7.822;2023-03-23T08:55:27;6.47;;;2.38;;
46415;SDS011;32620;51.704;7.822;2023-03-23T08:57:54;6.75;;;2.28;;
46415;SDS011;32620;51.704;7.822;2023-03-23T09:00:21;5.70;;;2.45;;
46415;SDS011;32620;51.704;7.822;2023-03-23T09:02:50;7.60;;;2.33;;
46415;SDS011;32620;51.704;7.822;2023-03-23T09:05:18;7.15;;;2.60;;
46415;SDS011;32620;51.704;7.822;2023-03-23T09:07:47;7.80;;;2.65;;
46415;SDS011;32620;51.704;7.822;2023-03-23T09:10:14;6.65;;;2.58;;
46415;SDS011;32620;51.704;7.822;2023-03-23T09:12:41;6.35;;;2.90;;
46415;SDS011;32620;51.704;7.822;2023-03-23T09:15:08;5.63;;;2.33;;
46415;SDS011;32620;51.704;7.822;2023-03-23T09:17:36;6.82;;;2.75;;
46415;SDS011;32620;51.704;7.822;2023-03-23T09:20:04;7.30;;;2.80;;
46415;SDS011;32620;51.704;7.822;2023-03-23T09:22:36;7.50;;;2.95;;
46415;SDS011;32620;51.704;7.822;2023-03-23T09:25:03;7.45;;;2.47;;
46415;SDS011;32620;51.704;7.822;2023-03-23T09:27:29;8.68;;;2.78;;
46415;SDS011;32620;51.704;7.822;2023-03-23T09:29:55;5.45;;;2.78;;
46415;SDS011;32620;51.704;7.822;2023-03-23T09:32:20;5.15;;;2.70;;
46415;SDS011;32620;51.704;7.822;2023-03-23T09:34:47;6.65;;;2.83;;
46415;SDS011;32620;51.704;7.822;2023-03-23T09:37:13;4.22;;;2.28;;
46415;SDS011;32620;51.704;7.822;2023-03-23T09:39:39;7.20;;;3.15;;
46415;SDS011;32620;51.704;7.822;2023-03-23T09:42:16;5.85;;;2.58;;
46415;SDS011;32620;51.704;7.822;2023-03-23T09:44:57;9.65;;;3.35;;
46415;SDS011;32620;51.704;7.822;2023-03-23T09:47:38;5.10;;;2.22;;
46415;SDS011;32620;51.704;7.822;2023-03-23T09:50:14;8.35;;;2.88;;
46415;SDS011;32620;51.704;7.822;2023-03-23T09:52:45;6.28;;;2.30;;
46415;SDS011;32620;51.704;7.822;2023-03-23T09:55:16;8.02;;;2.88;;
46415;SDS011;32620;51.704;7.822;2023-03-23T09:57:54;9.57;;;2.70;;
46415;SDS011;32620;51.704;7.822;2023-03-23T10:00:26;7.45;;;2.70;;
46415;SDS011;32620;51.704;7.822;2023-03-23T10:03:00;14.45;;;3.15;;
46415;SDS011;32620;51.704;7.822;2023-03-23T10:05:45;8.55;;;2.38;;
46415;SDS011;32620;51.704;7.822;2023-03-23T10:08:15;7.40;;;2.53;;
46415;SDS011;32620;51.704;7.822;2023-03-23T10:16:18;8.20;;;2.95;;
46415;SDS011;32620;51.704;7.822;2023-03-23T10:18:50;12.45;;;3.38;;
46415;SDS011;32620;51.704;7.822;2023-03-23T10:21:24;8.95;;;3.28;;
46415;SDS011;32620;51.704;7.822;2023-03-23T10:23:58;11.07;;;2.70;;
46415;SDS011;32620;51.704;7.822;2023-03-23T10:29:21;9.00;;;2.90;;
46415;SDS011;32620;51.704;7.822;2023-03-23T10:31:53;9.95;;;2.78;;
46415;SDS011;32620;51.704;7.822;2023-03-23T10:35:05;7.65;;;3.03;;
46415;SDS011;32620;51.704;7.822;2023-03-23T10:39:57;2.10;;;1.00;;
46415;SDS011;32620;51.704;7.822;2023-03-23T10:42:32;3.33;;;1.35;;
46415;SDS011;32620;51.704;7.822;2023-03-23T10:45:00;4.13;;;1.15;;
46415;SDS011;32620;51.704;7.822;2023-03-23T10:47:37;2.10;;;1.05;;
46415;SDS011;32620;51.704;7.822;2023-03-23T10:50:05;4.15;;;1.30;;
46415;SDS011;32620;51.704;7.822;2023-03-23T10:52:38;2.20;;;1.17;;
46415;SDS011;32620;51.704;7.822;2023-03-23T10:55:10;2.92;;;1.05;;
46415;SDS011;32620;51.704;7.822;2023-03-23T10:57:42;3.60;;;1.38;;
46415;SDS011;32620;51.704;7.822;2023-03-23T11:00:18;5.05;;;1.33;;
46415;SDS011;32620;51.704;7.822;2023-03-23T11:02:47;3.92;;;1.23;;
46415;SDS011;32620;51.704;7.822;2023-03-23T11:05:40;3.40;;;1.35;;
46415;SDS011;32620;51.704;7.822;2023-03-23T11:08:16;12.05;;;4.78;;
46415;SDS011;32620;51.704;7.822;2023-03-23T11:10:49;6.25;;;3.42;;
46415;SDS011;32620;51.704;7.822;2023-03-23T11:13:21;4.20;;;1.60;;
46415;SDS011;32620;51.704;7.822;2023-03-23T11:15:50;3.47;;;1.50;;
46415;SDS011;32620;51.704;7.822;2023-03-23T11:18:20;8.40;;;4.82;;
46415;SDS011;32620;51.704;7.822;2023-03-23T11:20:53;8.50;;;3.50;;
46415;SDS011;32620;51.704;7.822;2023-03-23T11:26:08;17.00;;;11.38;;
46415;SDS011;32620;51.704;7.822;2023-03-23T11:28:43;8.75;;;5.25;;
46415;SDS011;32620;51.704;7.822;2023-03-23T11:31:12;18.77;;;14.20;;
46415;SDS011;32620;51.704;7.822;2023-03-23T11:33:39;13.70;;;10.65;;
46415;SDS011;32620;51.704;7.822;2023-03-23T11:36:13;8.25;;;2.50;;
46415;SDS011;32620;51.704;7.822;2023-03-23T11:38:40;7.63;;;2.92;;
46415;SDS011;32620;51.704;7.822;2023-03-23T11:41:09;5.07;;;2.17;;
46415;SDS011;32620;51.704;7.822;2023-03-23T11:43:39;3.90;;;2.70;;
46415;SDS011;32620;51.704;7.822;2023-03-23T11:46:19;7.32;;;3.03;;
46415;SDS011;32620;51.704;7.822;2023-03-23T11:48:59;9.75;;;3.90;;
46415;SDS011;32620;51.704;7.822;2023-03-23T11:51:39;7.88;;;3.00;;
46415;SDS011;32620;51.704;7.822;2023-03-23T11:54:29;9.13;;;2.97;;
46415;SDS011;32620;51.704;7.822;2023-03-23T11:56:58;6.60;;;2.70;;
46415;SDS011;32620;51.704;7.822;2023-03-23T11:59:27;8.27;;;2.88;;
46415;SDS011;32620;51.704;7.822;2023-03-23T12:11:07;9.30;;;2.28;;
46415;SDS011;32620;51.704;7.822;2023-03-23T12:16:47;4.22;;;2.20;;
46415;SDS011;32620;51.704;7.822;2023-03-23T12:22:46;7.47;;;2.67;;
46415;SDS011;32620;51.704;7.822;2023-03-23T12:25:43;4.72;;;2.00;;
46415;SDS011;32620;51.704;7.822;2023-03-23T12:28:40;3.80;;;2.42;;
46415;SDS011;32620;51.704;7.822;2023-03-23T12:31:37;9.00;;;5.90;;
46415;SDS011;32620;51.704;7.822;2023-03-23T12:40:19;5.47;;;2.97;;
46415;SDS011;32620;51.704;7.822;2023-03-23T12:48:27;7.50;;;2.40;;
46415;SDS011;32620;51.704;7.822;2023-03-23T12:53:38;3.15;;;2.42;;
46415;SDS011;32620;51.704;7.822;2023-03-23T12:56:17;8.07;;;3.30;;
46415;SDS011;32620;51.704;7.822;2023-03-23T12:58:50;8.20;;;4.13;;
46415;SDS011;32620;51.704;7.822;2023-03-23T13:01:25;7.13;;;4.70;;
46415;SDS011;32620;51.704;7.822;2023-03-23T13:04:11;9.38;;;5.22;;
46415;SDS011;32620;51.704;7.822;2023-03-23T13:06:43;10.57;;;7.60;;
46415;SDS011;32620;51.704;7.822;2023-03-23T13:12:04;12.63;;;8.18;;
46415;SDS011;32620;51.704;7.822;2023-03-23T13:14:50;14.15;;;8.43;;
46415;SDS011;32620;51.704;7.822;2023-03-23T13:17:28;13.65;;;8.63;;
46415;SDS011;32620;51.704;7.822;2023-03-23T13:20:46;12.60;;;8.55;;
46415;SDS011;32620;51.704;7.822;2023-03-23T13:23:05;16.70;;;9.52;;
46415;SDS011;32620;51.704;7.822;2023-03-23T13:25:43;12.38;;;8.63;;
46415;SDS011;32620;51.704;7.822;2023-03-23T13:28:16;13.48;;;8.73;;
46415;SDS011;32620;51.704;7.822;2023-03-23T13:31:03;11.50;;;8.65;;
46415;SDS011;32620;51.704;7.822;2023-03-23T13:33:37;16.70;;;8.80;;
46415;SDS011;32620;51.704;7.822;2023-03-23T13:36:04;9.32;;;7.57;;
46415;SDS011;32620;51.704;7.822;2023-03-23T13:38:35;13.57;;;8.07;;
46415;SDS011;32620;51.704;7.822;2023-03-23T13:41:08;10.63;;;7.78;;
46415;SDS011;32620;51.704;7.822;2023-03-23T13:43:37;10.48;;;7.45;;
46415;SDS011;32620;51.704;7.822;2023-03-23T13:46:13;15.77;;;10.85;;
46415;SDS011;32620;51.704;7.822;2023-03-23T13:48:51;12.30;;;9.20;;
46415;SDS011;32620;51.704;7.822;2023-03-23T13:57:01;11.45;;;6.28;;
46415;SDS011;32620;51.704;7.822;2023-03-23T13:59:32;7.40;;;5.32;;
46415;SDS011;32620;51.704;7.822;2023-03-23T14:03:03;8.60;;;5.17;;
46415;SDS011;32620;51.704;7.822;2023-03-23T14:08:12;8.75;;;4.90;;
46415;SDS011;32620;51.704;7.822;2023-03-23T14:16:42;5.20;;;3.42;;
46415;SDS011;32620;51.704;7.822;2023-03-23T14:19:19;6.25;;;4.38;;
46415;SDS011;32620;51.704;7.822;2023-03-23T14:21:54;8.07;;;4.03;;
46415;SDS011;32620;51.704;7.822;2023-03-23T14:24:23;9.32;;;3.70;;
46415;SDS011;32620;51.704;7.822;2023-03-23T14:26:53;8.70;;;4.20;;
46415;SDS011;32620;51.704;7.822;2023-03-23T14:29:34;5.95;;;3.53;;
46415;SDS011;32620;51.704;7.822;2023-03-23T14:31:59;5.95;;;3.35;;
46415;SDS011;32620;51.704;7.822;2023-03-23T14:34:26;6.07;;;2.95;;
46415;SDS011;32620;51.704;7.822;2023-03-23T14:36:56;6.07;;;2.85;;
46415;SDS011;32620;51.704;7.822;2023-03-23T14:39:24;6.07;;;2.72;;
46415;SDS011;32620;51.704;7.822;2023-03-23T14:42:02;5.90;;;3.20;;
46415;SDS011;32620;51.704;7.822;2023-03-23T14:44:31;7.40;;;3.05;;
46415;SDS011;32620;51.704;7.822;2023-03-23T14:47:01;10.68;;;3.20;;
46415;SDS011;32620;51.704;7.822;2023-03-23T14:49:30;6.53;;;2.88;;
46415;SDS011;32620;51.704;7.822;2023-03-23T14:52:02;6.63;;;2.90;;
46415;SDS011;32620;51.704;7.822;2023-03-23T14:54:34;10.60;;;3.60;;
46415;SDS011;32620;51.704;7.822;2023-03-23T14:57:02;7.82;;;3.33;;
46415;SDS011;32620;51.704;7.822;2023-03-23T14:59:39;6.60;;;3.20;;
46415;SDS011;32620;51.704;7.822;2023-03-23T15:02:05;6.93;;;2.58;;
46415;SDS011;32620;51.704;7.822;2023-03-23T15:04:37;4.15;;;2.92;;
46415;SDS011;32620;51.704;7.822;2023-03-23T15:07:04;7.95;;;3.22;;
46415;SDS011;32620;51.704;7.822;2023-03-23T15:09:30;4.05;;;2.72;;
46415;SDS011;32620;51.704;7.822;2023-03-23T15:11:57;4.93;;;3.10;;
46415;SDS011;32620;51.704;7.822;2023-03-23T15:14:29;6.40;;;3.58;;
46415;SDS011;32620;51.704;7.822;2023-03-23T15:16:58;8.57;;;4.78;;
46415;SDS011;32620;51.704;7.822;2023-03-23T15:19:28;8.52;;;4.43;;
46415;SDS011;32620;51.704;7.822;2023-03-23T15:22:33;9.13;;;4.95;;
46415;SDS011;32620;51.704;7.822;2023-03-23T15:24:51;8.63;;;5.90;;
46415;SDS011;32620;51.704;7.822;2023-03-23T15:27:38;10.77;;;6.70;;
46415;SDS011;32620;51.704;7.822;2023-03-23T15:30:37;7.65;;;6.25;;
46415;SDS011;32620;51.704;7.822;2023-03-23T15:32:55;13.15;;;6.97;;
46415;SDS011;32620;51.704;7.822;2023-03-23T15:35:26;10.20;;;7.20;;
46415;SDS011;32620;51.704;7.822;2023-03-23T15:37:58;14.68;;;7.75;;
46415;SDS011;32620;51.704;7.822;2023-03-23T15:40:31;12.07;;;6.95;;
46415;SDS011;32620;51.704;7.822;2023-03-23T15:43:07;13.45;;;7.97;;
46415;SDS011;32620;51.704;7.822;2023-03-23T15:51:19;12.30;;;7.68;;
46415;SDS011;32620;51.704;7.822;2023-03-23T15:53:47;11.52;;;7.70;;
46415;SDS011;32620;51.704;7.822;2023-03-23T15:56:14;13.00;;;7.40;;
46415;SDS011;32620;51.704;7.822;2023-03-23T15:58:40;13.65;;;7.53;;
46415;SDS011;32620;51.704;7.822;2023-03-23T16:01:09;10.73;;;7.63;;
46415;SDS011;32620;51.704;7.822;2023-03-23T16:03:39;13.50;;;7.95;;
46415;SDS011;32620;51.704;7.822;2023-03-23T16:06:11;14.52;;;7.45;;
46415;SDS011;32620;51.704;7.822;2023-03-23T16:08:37;9.93;;;6.65;;
46415;SDS011;32620;51.704;7.822;2023-03-23T16:11:05;18.30;;;6.85;;
46415;SDS011;32620;51.704;7.822;2023-03-23T16:13:33;12.57;;;6.05;;
46415;SDS011;32620;51.704;7.822;2023-03-23T16:15:59;11.85;;;6.00;;